Time;durP1;ratioP1;P1;durP2;ratioP2;P2;SDS_P1;SDS_P2;PMS_P1;PMS_P2;Temp;Humidity;BMP_temperature;BMP_pressure;BME280_temperature;BME280_humidity;BME280_pressure;Samples;Min_cycle;Max_cycle;Signal;HPM_P1;HPM_P2
2022/09/02 00:01:31;;;;;;;0.90;0.80;;;;;;;26.98;26.77;101780.09;5043986;28;20056;-76
2022/09/02 00:04:00;;;;;;;1.38;0.90;;;;;;;26.49;27.85;101786.75;5053567;28;20143;-75
2022/09/02 00:06:27;;;;;;;1.10;0.80;;;;;;;27.52;26.97;101787.34;5035883;28;20112;-75
2022/09/02 00:08:53;;;;;;;2.65;0.80;;;;;;;27.29;26.76;101785.31;5036618;28;20534;-75
2022/09/02 00:11:23;;;;;;;0.88;0.80;;;;;;;27.01;27.25;101781.72;5066020;28;20029;-75
2022/09/02 00:13:50;;;;;;;1.42;0.85;;;;;;;27.37;27.54;101781.19;5047003;28;20068;-75
2022/09/02 00:16:16;;;;;;;1.50;0.80;;;;;;;27.51;27.21;101768.66;5067234;28;20077;-74
2022/09/02 00:18:43;;;;;;;1.70;0.80;;;;;;;26.54;27.96;101779.31;5053335;28;20422;-75
2022/09/02 00:21:12;;;;;;;2.88;0.80;;;;;;;27.41;27.73;101774.66;5072196;28;20081;-75
2022/09/02 00:23:38;;;;;;;2.92;1.10;;;;;;;27.19;27.21;101768.94;5044483;28;20108;-75
2022/09/02 00:26:04;;;;;;;1.90;1.02;;;;;;;27.19;27.03;101774.31;5040485;28;20052;-75
2022/09/02 00:28:29;;;;;;;3.03;1.02;;;;;;;27.21;27.02;101767.03;5053176;28;20029;-75
2022/09/02 00:30:55;;;;;;;2.47;0.80;;;;;;;26.82;27.65;101764.16;5055836;28;20048;-75
2022/09/02 00:33:20;;;;;;;1.58;0.90;;;;;;;26.97;27.64;101764.13;5058686;28;20032;-75
2022/09/02 00:35:46;;;;;;;1.65;0.98;;;;;;;26.42;27.94;101764.84;5052348;28;20035;-75
2022/09/02 00:38:11;;;;;;;4.25;0.70;;;;;;;27.17;27.36;101761.00;5053860;28;20028;-76
2022/09/02 00:40:37;;;;;;;1.23;0.85;;;;;;;26.63;27.79;101760.91;5041690;28;20123;-75
2022/09/02 00:43:07;;;;;;;1.52;0.73;;;;;;;26.40;27.90;101765.88;5041387;28;20489;-75
2022/09/02 00:45:34;;;;;;;0.90;0.68;;;;;;;26.88;27.78;101763.75;5052338;28;20083;-74
2022/09/02 00:47:59;;;;;;;0.80;0.60;;;;;;;27.21;27.19;101741.03;5034867;28;20029;-75
2022/09/02 00:50:29;;;;;;;1.30;0.70;;;;;;;26.35;28.40;101757.28;5035625;28;20075;-75
2022/09/02 00:53:01;;;;;;;1.45;0.77;;;;;;;26.39;28.16;101754.31;5034931;28;20500;-75
2022/09/02 00:55:30;;;;;;;4.00;0.82;;;;;;;26.12;28.35;101751.53;5049046;28;20032;-75
2022/09/02 00:58:03;;;;;;;1.15;0.93;;;;;;;26.18;28.24;101750.28;5054822;28;20032;-75
2022/09/02 01:00:34;;;;;;;1.85;0.80;;;;;;;26.30;28.60;101749.53;5055551;28;20039;-75
2022/09/02 01:03:03;;;;;;;1.52;0.90;;;;;;;26.45;28.16;101753.06;5060146;28;20230;-75
2022/09/02 01:05:32;;;;;;;3.03;0.82;;;;;;;26.94;27.55;101748.22;5065404;28;20154;-75
2022/09/02 01:07:58;;;;;;;1.42;0.90;;;;;;;26.89;27.41;101746.72;5050923;28;20025;-75
2022/09/02 01:10:28;;;;;;;3.03;0.82;;;;;;;26.90;27.59;101743.06;5046332;28;20039;-75
2022/09/02 01:12:56;;;;;;;0.95;0.70;;;;;;;26.03;28.48;101746.72;5054113;28;20066;-75
2022/09/02 01:15:22;;;;;;;0.93;0.55;;;;;;;26.56;28.26;101745.22;5053104;28;20142;-75
2022/09/02 01:17:49;;;;;;;5.10;0.65;;;;;;;26.15;28.60;101745.97;5051773;28;20429;-75
2022/09/02 01:20:20;;;;;;;3.45;0.85;;;;;;;25.45;29.21;101746.56;5052612;28;20079;-75
2022/09/02 01:22:45;;;;;;;2.00;0.80;;;;;;;25.74;29.30;101742.16;5060453;28;20052;-75
2022/09/02 01:25:16;;;;;;;1.17;0.50;;;;;;;25.70;28.98;101739.75;5066503;28;20472;-75
2022/09/02 01:27:42;;;;;;;3.40;0.82;;;;;;;25.79;28.95;101746.38;5047192;28;20062;-74
2022/09/02 01:30:13;;;;;;;3.38;0.82;;;;;;;25.63;29.13;101738.41;5070896;28;20035;-75
2022/09/02 01:32:38;;;;;;;3.20;0.90;;;;;;;26.45;27.99;101747.72;5071618;28;20111;-75
2022/09/02 01:35:05;;;;;;;0.70;0.70;;;;;;;26.11;29.13;101743.59;5072714;28;20035;-75
2022/09/02 01:37:31;;;;;;;2.10;0.90;;;;;;;25.83;28.86;101735.41;5049539;28;20474;-75
2022/09/02 01:39:56;;;;;;;3.50;1.02;;;;;;;25.27;29.78;101737.78;5057452;28;20028;-75
2022/09/02 01:42:22;;;;;;;1.80;0.70;;;;;;;26.11;28.79;101728.38;5062978;28;20439;-75
2022/09/02 01:44:47;;;;;;;4.07;0.90;;;;;;;26.03;28.80;101731.50;5050900;28;20444;-75
2022/09/02 01:47:19;;;;;;;4.30;0.90;;;;;;;25.62;29.47;101728.66;5059315;28;20032;-75
2022/09/02 01:49:45;;;;;;;6.07;0.70;;;;;;;25.80;29.01;101729.34;5048263;28;20090;-75
2022/09/02 01:52:11;;;;;;;1.48;0.80;;;;;;;25.85;29.00;101727.25;5065727;28;20021;-75
2022/09/02 01:54:37;;;;;;;2.30;0.80;;;;;;;25.94;29.11;101725.84;5052258;28;20024;-74
2022/09/02 01:57:03;;;;;;;3.60;1.08;;;;;;;26.14;29.16;101724.66;5034176;28;20029;-75
2022/09/02 01:59:28;;;;;;;1.15;0.68;;;;;;;26.15;28.91;101724.56;5054476;28;20035;-75
2022/09/02 02:01:54;;;;;;;3.95;1.52;;;;;;;25.81;29.29;101721.22;5050598;28;20040;-75
2022/09/02 02:04:21;;;;;;;1.73;0.68;;;;;;;25.97;28.96;101714.97;5045620;28;20024;-75
2022/09/02 02:06:47;;;;;;;0.52;0.52;;;;;;;25.86;29.18;101715.59;5053652;28;20385;-75
2022/09/02 02:09:13;;;;;;;1.10;0.90;;;;;;;25.99;28.92;101719.22;5069903;28;20024;-75
2022/09/02 02:11:39;;;;;;;2.92;0.88;;;;;;;25.78;28.86;101716.06;5069835;28;20500;-75
2022/09/02 02:14:05;;;;;;;3.13;0.75;;;;;;;25.52;29.69;101717.63;5041778;28;20032;-75
2022/09/02 02:16:30;;;;;;;1.77;0.68;;;;;;;26.02;28.56;101712.88;5034195;28;20370;-75
2022/09/02 02:18:57;;;;;;;0.90;0.70;;;;;;;26.21;28.35;101721.50;5050739;28;20480;-75
2022/09/02 02:21:23;;;;;;;2.92;0.80;;;;;;;25.69;28.77;101712.13;5066838;28;20398;-75
2022/09/02 02:23:48;;;;;;;1.75;0.80;;;;;;;25.60;29.42;101714.50;5042797;28;20032;-75
2022/09/02 02:26:14;;;;;;;2.63;0.65;;;;;;;26.44;29.07;101711.13;5050140;28;20431;-74
2022/09/02 02:28:39;;;;;;;3.63;0.85;;;;;;;26.18;28.78;101719.00;5065394;28;20437;-75
2022/09/02 02:31:05;;;;;;;0.60;0.60;;;;;;;26.13;28.96;101717.56;5051756;28;20025;-75
2022/09/02 02:33:31;;;;;;;1.77;0.70;;;;;;;26.14;29.39;101706.75;5060373;28;20373;-75
2022/09/02 02:35:57;;;;;;;3.63;1.42;;;;;;;26.18;28.79;101702.06;5049823;28;20029;-75
2022/09/02 02:38:22;;;;;;;3.67;0.90;;;;;;;26.46;28.98;101701.19;5071780;28;20032;-75
2022/09/02 02:40:48;;;;;;;5.20;0.70;;;;;;;26.29;29.40;101704.94;5071091;28;20040;-75
2022/09/02 02:43:14;;;;;;;4.20;0.70;;;;;;;25.47;29.87;101701.84;5039813;28;20021;-75
2022/09/02 02:45:40;;;;;;;1.48;0.73;;;;;;;26.12;29.34;101697.06;5055976;28;20051;-75
2022/09/02 02:48:05;;;;;;;2.97;0.82;;;;;;;25.85;29.37;101695.13;5091275;28;20048;-75
2022/09/02 02:50:32;;;;;;;1.83;0.85;;;;;;;25.86;29.50;101696.88;5091960;28;20368;-75
2022/09/02 02:53:01;;;;;;;2.00;0.80;;;;;;;26.13;29.15;101699.69;5061896;28;20037;-75
2022/09/02 02:55:26;;;;;;;1.90;1.75;;;;;;;26.53;29.00;101697.16;5082602;28;20058;-75
2022/09/02 02:57:52;;;;;;;2.30;0.98;;;;;;;25.86;29.47;101703.06;5073695;28;20098;-75
2022/09/02 03:00:30;;;;;;;2.92;0.80;;;;;;;25.90;29.16;101704.59;5090012;28;20051;-75
2022/09/02 03:03:03;;;;;;;3.03;0.80;;;;;;;25.64;30.07;101692.81;5089246;28;20118;-74
2022/09/02 03:05:29;;;;;;;5.32;0.88;;;;;;;25.69;29.50;101698.75;5064457;28;20036;-75
2022/09/02 03:07:55;;;;;;;2.53;0.90;;;;;;;25.63;29.77;101690.22;5091750;28;20020;-75
2022/09/02 03:10:22;;;;;;;0.82;0.82;;;;;;;25.44;30.13;101691.31;5072995;28;20072;-75
2022/09/02 03:12:47;;;;;;;2.10;0.98;;;;;;;25.75;29.60;101689.47;5089061;28;20031;-74
2022/09/02 03:15:16;;;;;;;1.88;1.02;;;;;;;25.47;30.06;101685.81;5086394;28;20032;-75
2022/09/02 03:17:46;;;;;;;4.13;0.98;;;;;;;25.86;29.45;101689.69;5076743;28;20029;-75
2022/09/02 03:20:12;;;;;;;5.57;0.77;;;;;;;25.73;29.54;101689.56;5066082;28;20085;-75
2022/09/02 03:22:37;;;;;;;2.15;0.80;;;;;;;25.49;29.94;101686.56;5091175;28;20049;-75
2022/09/02 03:25:08;;;;;;;2.95;1.02;;;;;;;25.70;29.39;101687.06;5083207;28;20032;-75
2022/09/02 03:27:33;;;;;;;7.32;0.90;;;;;;;25.14;30.50;101692.16;5090241;28;20024;-75
2022/09/02 03:30:00;;;;;;;1.83;1.00;;;;;;;25.22;30.51;101687.22;5090759;28;20895;-75
2022/09/02 03:32:26;;;;;;;7.68;1.00;;;;;;;25.23;30.83;101683.56;5062701;28;20029;-75
2022/09/02 03:34:53;;;;;;;9.82;1.60;;;;;;;25.33;30.50;101685.75;5076688;28;20034;-75
2022/09/02 03:37:18;;;;;;;1.20;0.90;;;;;;;25.21;30.57;101685.50;5088859;28;20077;-74
2022/09/02 03:39:43;;;;;;;2.05;0.95;;;;;;;25.27;30.34;101688.75;5075008;28;20032;-75
2022/09/02 03:42:09;;;;;;;6.07;0.98;;;;;;;24.51;31.25;101675.16;5067486;28;20453;-74
2022/09/02 03:44:34;;;;;;;4.13;1.00;;;;;;;25.20;30.59;101683.75;5065707;28;20032;-74
2022/09/02 03:47:00;;;;;;;0.80;0.70;;;;;;;25.55;30.05;101678.19;5093794;28;20052;-75
2022/09/02 03:49:29;;;;;;;4.22;1.85;;;;;;;25.14;31.34;101675.22;5076694;28;20553;-74
2022/09/02 03:51:54;;;;;;;2.42;1.08;;;;;;;25.48;30.92;101676.78;5094363;28;20034;-74
2022/09/02 03:54:20;;;;;;;0.88;0.77;;;;;;;25.70;30.03;101675.50;5091099;28;20032;-74
2022/09/02 03:56:45;;;;;;;4.72;1.40;;;;;;;25.90;29.66;101671.63;5062907;28;20418;-74
2022/09/02 03:59:11;;;;;;;2.20;1.08;;;;;;;25.80;29.97;101668.66;5056077;28;20476;-74
2022/09/02 04:01:36;;;;;;;6.13;1.10;;;;;;;25.11;30.63;101662.88;5065528;28;20074;-74
2022/09/02 04:04:03;;;;;;;5.20;1.00;;;;;;;25.14;30.60;101668.09;5075253;28;20027;-74
2022/09/02 04:06:29;;;;;;;2.13;1.20;;;;;;;25.20;30.37;101662.34;5055217;28;20063;-74
2022/09/02 04:08:55;;;;;;;2.92;0.95;;;;;;;24.59;31.23;101661.38;5055464;28;20104;-74
2022/09/02 04:11:21;;;;;;;1.42;0.88;;;;;;;24.67;31.36;101656.47;5074389;28;20082;-75
2022/09/02 04:13:49;;;;;;;5.45;1.13;;;;;;;25.43;30.68;101662.84;5076491;28;20024;-74
2022/09/02 04:16:18;;;;;;;3.13;0.88;;;;;;;25.26;30.40;101655.78;5075590;28;20388;-74
2022/09/02 04:18:44;;;;;;;1.52;0.88;;;;;;;25.40;30.04;101650.53;5074266;28;20027;-74
2022/09/02 04:21:09;;;;;;;0.95;0.75;;;;;;;25.65;29.94;101645.47;5072999;28;20488;-75
2022/09/02 04:23:35;;;;;;;1.48;1.00;;;;;;;25.41;30.08;101656.72;5056383;28;20020;-74
2022/09/02 04:26:07;;;;;;;3.13;0.82;;;;;;;25.13;30.89;101660.13;5090117;28;20503;-74
2022/09/02 04:28:33;;;;;;;2.20;0.93;;;;;;;25.22;31.05;101655.13;5090817;28;20445;-74
2022/09/02 04:31:02;;;;;;;2.22;1.27;;;;;;;25.64;30.01;101659.84;5075931;28;20030;-74
2022/09/02 04:33:27;;;;;;;2.17;1.00;;;;;;;25.01;31.06;101646.53;5074161;28;20111;-74
2022/09/02 04:35:52;;;;;;;1.10;0.90;;;;;;;25.49;30.22;101646.41;5089599;28;20114;-74
2022/09/02 04:38:18;;;;;;;4.90;1.05;;;;;;;24.17;32.15;101644.97;5073789;28;20081;-75
2022/09/02 04:40:45;;;;;;;1.40;0.95;;;;;;;24.79;31.12;101646.91;5075453;28;20031;-75
2022/09/02 04:43:12;;;;;;;2.72;1.10;;;;;;;24.85;31.08;101646.56;5076186;28;20069;-75
2022/09/02 04:45:44;;;;;;;3.28;1.67;;;;;;;25.36;30.71;101640.94;5055860;28;20040;-75
2022/09/02 04:48:10;;;;;;;1.75;0.85;;;;;;;25.79;29.72;101647.31;5055304;28;20051;-75
2022/09/02 04:50:37;;;;;;;4.35;1.10;;;;;;;25.26;30.66;101644.22;5065763;28;20036;-75
2022/09/02 04:53:03;;;;;;;3.47;1.17;;;;;;;25.38;30.47;101643.53;5074997;28;20028;-74
2022/09/02 04:55:29;;;;;;;1.73;1.08;;;;;;;24.78;31.06;101638.97;5057130;28;20085;-75
2022/09/02 04:57:54;;;;;;;1.02;0.90;;;;;;;25.29;30.90;101641.38;5075758;28;20020;-75
2022/09/02 05:00:20;;;;;;;1.88;1.20;;;;;;;25.03;31.19;101649.09;5075644;28;20110;-76
2022/09/02 05:02:45;;;;;;;1.35;1.17;;;;;;;24.99;30.88;101642.22;5091575;28;20028;-75
2022/09/02 05:05:11;;;;;;;2.05;1.10;;;;;;;24.62;31.32;101633.63;5071821;28;20107;-75
2022/09/02 05:07:38;;;;;;;3.95;1.25;;;;;;;24.67;31.36;101647.63;5075726;28;20047;-75
2022/09/02 05:10:04;;;;;;;3.33;1.13;;;;;;;24.31;32.19;101651.38;5075206;28;20418;-75
2022/09/02 05:12:31;;;;;;;3.92;1.00;;;;;;;24.86;31.64;101647.41;5055473;28;20074;-75
2022/09/02 05:14:59;;;;;;;4.43;1.27;;;;;;;24.65;31.63;101644.19;5057588;28;20028;-75
2022/09/02 05:17:25;;;;;;;1.17;1.00;;;;;;;23.96;32.53;101646.13;5080480;28;20423;-75
2022/09/02 05:19:51;;;;;;;3.08;1.60;;;;;;;24.38;31.97;101647.41;5073274;28;20020;-75
2022/09/02 05:22:17;;;;;;;0.80;0.80;;;;;;;24.06;32.79;101652.72;5082637;28;20543;-75
2022/09/02 05:24:42;;;;;;;3.72;1.45;;;;;;;24.31;32.16;101646.03;5055495;28;20544;-75
2022/09/02 05:27:08;;;;;;;2.42;1.00;;;;;;;24.26;32.12;101645.41;5054698;28;20024;-74
2022/09/02 05:29:34;;;;;;;1.08;0.90;;;;;;;24.16;32.40;101648.56;5080406;28;20028;-75
2022/09/02 05:31:59;;;;;;;5.07;0.98;;;;;;;24.73;31.35;101647.28;5073100;28;20039;-75
2022/09/02 05:34:25;;;;;;;1.45;0.90;;;;;;;24.65;31.91;101654.88;5073748;28;20074;-75
2022/09/02 05:36:50;;;;;;;2.35;1.08;;;;;;;24.99;31.26;101648.44;5074363;28;20575;-75
2022/09/02 05:39:16;;;;;;;2.33;1.10;;;;;;;24.74;31.73;101643.63;5090227;28;20082;-74
2022/09/02 05:41:41;;;;;;;4.45;1.40;;;;;;;24.20;32.40;101643.94;5083336;28;20039;-75
2022/09/02 05:44:07;;;;;;;1.58;1.00;;;;;;;25.06;32.52;101648.94;5054275;28;20469;-75
2022/09/02 05:46:33;;;;;;;1.77;1.20;;;;;;;25.31;31.06;101643.00;5034569;28;20052;-75
2022/09/02 05:49:07;;;;;;;3.72;1.33;;;;;;;24.85;31.53;101649.25;5054434;28;20033;-75
2022/09/02 05:51:39;;;;;;;4.78;1.30;;;;;;;25.25;31.19;101648.69;5063808;28;20028;-75
2022/09/02 05:54:05;;;;;;;2.05;1.00;;;;;;;25.45;31.09;101652.06;5054791;28;20518;-75
2022/09/02 05:56:30;;;;;;;3.15;1.20;;;;;;;24.90;31.41;101649.81;5057258;28;20029;-75
2022/09/02 05:58:57;;;;;;;1.55;1.00;;;;;;;25.72;30.71;101646.84;5033336;28;20025;-75
2022/09/02 06:01:23;;;;;;;1.55;1.13;;;;;;;25.39;31.01;101642.59;5033720;28;20036;-75
2022/09/02 06:03:51;;;;;;;6.35;1.17;;;;;;;24.93;31.46;101647.94;5034822;28;20492;-75
2022/09/02 06:06:17;;;;;;;3.75;1.20;;;;;;;25.38;31.12;101643.53;5034059;28;20032;-75
2022/09/02 06:08:43;;;;;;;2.55;1.20;;;;;;;25.56;30.80;101642.41;5034323;28;20055;-75
2022/09/02 06:11:11;;;;;;;1.98;1.20;;;;;;;25.06;31.56;101643.59;5052548;28;20477;-75
2022/09/02 06:13:39;;;;;;;1.88;1.00;;;;;;;25.56;30.95;101637.06;5035076;28;20017;-75
2022/09/02 06:16:07;;;;;;;2.63;0.98;;;;;;;25.45;31.39;101639.53;5047661;28;20115;-75
2022/09/02 06:18:33;;;;;;;1.75;1.08;;;;;;;25.37;31.34;101641.81;5042259;28;20504;-75
2022/09/02 06:21:00;;;;;;;2.33;1.20;;;;;;;25.51;31.85;101635.63;5070147;28;20191;-75
2022/09/02 06:23:26;;;;;;;3.88;1.45;;;;;;;25.94;31.35;101635.66;5070051;28;20056;-75
2022/09/02 06:25:51;;;;;;;5.95;1.05;;;;;;;26.08;30.75;101626.78;5051744;28;20464;-75
2022/09/02 06:28:17;;;;;;;1.13;1.00;;;;;;;26.09;30.78;101628.53;5070286;28;20483;-75
2022/09/02 06:30:44;;;;;;;3.13;1.20;;;;;;;25.28;32.09;101636.97;5039301;28;20056;-75
2022/09/02 06:33:10;;;;;;;5.00;0.98;;;;;;;25.74;31.80;101642.25;5069604;28;20036;-75
2022/09/02 06:35:39;;;;;;;4.68;1.33;;;;;;;25.64;31.14;101641.09;5039635;28;20035;-75
2022/09/02 06:38:05;;;;;;;6.22;1.17;;;;;;;25.72;31.34;101644.16;5033418;28;20037;-75
2022/09/02 06:40:30;;;;;;;1.40;1.20;;;;;;;26.08;30.94;101632.16;5037462;28;20040;-75
2022/09/02 06:42:55;;;;;;;1.98;1.00;;;;;;;26.38;30.20;101640.03;5052558;28;20472;-75
2022/09/02 06:45:23;;;;;;;2.13;1.20;;;;;;;26.56;30.55;101629.94;5062307;28;20047;-75
2022/09/02 06:47:48;;;;;;;2.47;1.20;;;;;;;26.54;30.93;101628.31;5073711;28;20039;-75
2022/09/02 06:50:14;;;;;;;1.63;1.20;;;;;;;26.81;30.27;101625.69;5064988;28;20029;-75
2022/09/02 06:52:39;;;;;;;4.00;1.30;;;;;;;26.97;30.89;101632.69;5058835;28;20082;-75
2022/09/02 06:55:05;;;;;;;2.80;1.20;;;;;;;26.66;31.11;101626.66;5057532;28;20487;-75
2022/09/02 06:57:32;;;;;;;7.10;1.20;;;;;;;26.63;31.23;101626.88;5071080;28;20032;-75
2022/09/02 06:59:58;;;;;;;1.50;1.30;;;;;;;26.48;31.39;101629.59;5074153;28;20089;-74
2022/09/02 07:02:23;;;;;;;4.47;1.42;;;;;;;26.80;30.75;101631.16;5066552;28;20472;-75
2022/09/02 07:07:34;;;;;;;1.58;1.40;;;;;;;27.66;30.37;101635.22;5071608;28;20059;-75
2022/09/02 07:10:00;;;;;;;3.08;1.45;;;;;;;27.56;29.77;101633.16;5085622;28;20032;-74
2022/09/02 07:12:26;;;;;;;5.60;1.30;;;;;;;27.14;30.83;101627.06;5083786;28;20028;-74
2022/09/02 07:14:52;;;;;;;6.30;1.65;;;;;;;27.18;31.21;101627.72;5056434;28;20051;-74
2022/09/02 07:17:20;;;;;;;4.28;1.48;;;;;;;27.52;30.19;101631.66;5061922;28;20490;-74
2022/09/02 07:19:46;;;;;;;1.65;1.20;;;;;;;27.67;30.58;101623.47;5067075;28;20028;-74
2022/09/02 07:22:12;;;;;;;3.42;1.40;;;;;;;27.83;30.40;101624.13;5064489;28;20028;-74
2022/09/02 07:24:37;;;;;;;2.70;1.38;;;;;;;28.29;29.43;101613.75;5074380;28;20039;-75
2022/09/02 07:27:04;;;;;;;3.38;1.70;;;;;;;27.51;30.52;101616.50;5065524;28;20032;-75
2022/09/02 07:29:30;;;;;;;2.85;1.63;;;;;;;27.63;30.22;101617.47;5074719;28;20033;-74
2022/09/02 07:31:57;;;;;;;1.88;1.60;;;;;;;27.72;30.49;101621.34;5076119;28;20107;-74
2022/09/02 07:34:22;;;;;;;6.93;1.50;;;;;;;28.50;29.13;101608.63;5064018;28;20059;-74
2022/09/02 07:36:48;;;;;;;3.65;1.60;;;;;;;29.75;27.84;101609.91;5065016;28;20078;-75
2022/09/02 07:39:15;;;;;;;4.53;1.48;;;;;;;31.38;25.20;101608.25;5077621;28;20023;-75
2022/09/02 07:41:44;;;;;;;4.22;1.38;;;;;;;32.68;24.61;101596.75;5086545;28;20029;-75
2022/09/02 07:44:10;;;;;;;2.35;1.45;;;;;;;32.19;23.65;101611.09;5074110;28;20115;-75
2022/09/02 07:46:35;;;;;;;3.85;1.42;;;;;;;32.09;23.50;101602.03;5039859;28;20125;-74
2022/09/02 07:49:06;;;;;;;6.00;1.45;;;;;;;31.99;23.65;101610.13;5058041;28;20025;-75
2022/09/02 07:51:32;;;;;;;2.55;1.45;;;;;;;31.95;24.35;101598.72;5037527;28;20032;-75
2022/09/02 07:54:04;;;;;;;5.70;1.40;;;;;;;33.16;22.40;101609.44;5023032;28;20105;-75
2022/09/02 07:56:30;;;;;;;2.03;1.23;;;;;;;32.47;23.60;101606.69;5048479;28;20029;-75
2022/09/02 07:58:55;;;;;;;2.25;1.30;;;;;;;31.32;24.46;101614.19;5035924;28;20033;-75
2022/09/02 08:01:21;;;;;;;5.15;2.17;;;;;;;31.79;23.99;101612.78;5057431;28;20381;-74
2022/09/02 08:03:47;;;;;;;3.45;2.08;;;;;;;31.68;24.63;101615.53;5071225;28;20473;-74
2022/09/02 08:06:13;;;;;;;2.70;1.45;;;;;;;31.38;24.05;101611.81;5035354;28;20029;-74
2022/09/02 08:08:40;;;;;;;5.28;1.75;;;;;;;32.38;24.60;101609.41;5056548;28;20028;-74
2022/09/02 08:11:06;;;;;;;5.35;1.50;;;;;;;31.79;25.07;101614.59;5073236;28;20530;-75
2022/09/02 08:13:32;;;;;;;9.48;1.90;;;;;;;32.53;24.50;101607.97;5053935;28;20016;-74
2022/09/02 08:15:57;;;;;;;3.28;2.03;;;;;;;32.81;23.53;101608.19;5055680;28;20495;-75
2022/09/02 08:18:23;;;;;;;3.47;1.70;;;;;;;32.58;23.91;101599.47;5063512;28;20036;-74
2022/09/02 08:20:49;;;;;;;5.35;1.65;;;;;;;33.04;23.40;101606.00;5036358;28;20017;-75
2022/09/02 08:23:15;;;;;;;5.53;2.08;;;;;;;32.86;23.27;101600.47;5066144;28;20107;-75
2022/09/02 08:25:42;;;;;;;4.15;1.60;;;;;;;31.65;24.78;101598.75;5070568;28;20115;-74
2022/09/02 08:28:07;;;;;;;4.35;1.65;;;;;;;31.20;25.43;101597.19;5056457;28;20031;-74
2022/09/02 08:30:33;;;;;;;2.72;1.98;;;;;;;31.36;25.83;101597.59;5067803;28;20025;-74
2022/09/02 08:32:58;;;;;;;3.30;2.10;;;;;;;30.62;26.70;101593.91;5036353;28;20419;-74
2022/09/02 08:35:24;;;;;;;4.60;1.92;;;;;;;31.21;26.01;101591.66;5066863;28;20035;-75
2022/09/02 08:37:50;;;;;;;7.57;1.77;;;;;;;30.74;25.90;101593.84;5055721;28;20071;-74
2022/09/02 08:40:19;;;;;;;3.60;1.85;;;;;;;30.27;26.83;101586.84;5037704;28;20052;-75
2022/09/02 08:42:51;;;;;;;5.50;2.00;;;;;;;30.60;27.41;101593.16;5035536;28;20021;-74
2022/09/02 08:45:36;;;;;;;6.20;2.15;;;;;;;31.16;26.12;101591.22;5063809;28;20516;-75
2022/09/02 08:48:23;;;;;;;7.13;1.98;;;;;;;31.82;25.74;101595.44;5034329;28;20508;-75
2022/09/02 08:50:51;;;;;;;4.70;1.73;;;;;;;31.72;25.83;101591.81;5063554;28;20033;-74
2022/09/02 08:53:31;;;;;;;4.95;2.03;;;;;;;31.75;25.67;101588.84;5049924;28;20025;-75
2022/09/02 08:56:01;;;;;;;5.28;2.17;;;;;;;31.74;26.18;101595.25;5066302;28;20031;-74
2022/09/02 08:58:32;;;;;;;3.50;2.10;;;;;;;31.92;25.53;101588.19;5062597;28;20028;-75
2022/09/02 09:01:31;;;;;;;6.50;2.10;;;;;;;31.54;26.04;101581.59;5047408;28;20467;-74
2022/09/02 09:04:25;;;;;;;6.93;2.30;;;;;;;31.38;25.84;101584.81;5054996;28;20376;-75
2022/09/02 09:07:18;;;;;;;5.53;2.20;;;;;;;31.13;26.71;101581.53;5035737;28;20068;-75
2022/09/02 09:09:44;;;;;;;7.25;2.35;;;;;;;31.08;26.94;101582.94;5033998;28;20025;-74
2022/09/02 09:12:28;;;;;;;3.15;2.15;;;;;;;30.60;27.19;101587.78;5061677;28;20029;-74
2022/09/02 09:14:53;;;;;;;5.15;2.30;;;;;;;31.74;26.40;101573.63;5053999;28;20085;-74
2022/09/02 09:17:26;;;;;;;7.30;2.38;;;;;;;31.36;26.77;101580.53;5071840;28;20033;-75
2022/09/02 09:19:54;;;;;;;3.70;2.30;;;;;;;31.59;26.46;101576.69;5055145;28;20078;-74
2022/09/02 09:22:29;;;;;;;8.18;2.30;;;;;;;32.78;25.22;101578.69;5053588;28;20573;-75
2022/09/02 09:24:56;;;;;;;4.55;2.10;;;;;;;33.04;25.39;101572.69;5054163;28;20119;-74
2022/09/02 09:27:22;;;;;;;4.68;2.40;;;;;;;32.32;24.87;101570.25;5051891;28;20025;-75
2022/09/02 09:29:48;;;;;;;7.60;3.13;;;;;;;32.75;24.91;101573.56;5034218;28;20044;-75
2022/09/02 09:32:22;;;;;;;5.30;2.65;;;;;;;33.74;23.73;101577.75;5052530;28;20033;-75
2022/09/02 09:34:51;;;;;;;5.13;2.83;;;;;;;33.59;23.52;101567.44;5053153;28;20499;-75
2022/09/02 09:37:37;;;;;;;9.80;2.90;;;;;;;33.31;24.06;101563.81;5036044;28;20045;-74
2022/09/02 09:40:17;;;;;;;3.38;2.17;;;;;;;33.82;23.38;101561.63;5053228;28;20045;-75
2022/09/02 09:42:44;;;;;;;4.88;2.17;;;;;;;33.89;23.55;101564.59;5034441;28;20044;-75
2022/09/02 09:45:20;;;;;;;3.58;2.70;;;;;;;35.02;22.46;101556.03;5052103;28;20080;-75
2022/09/02 09:48:14;;;;;;;4.93;2.15;;;;;;;35.86;22.13;101549.06;5063576;28;20037;-75
2022/09/02 09:50:39;;;;;;;6.78;2.17;;;;;;;36.37;21.93;101553.59;5063083;28;20233;-74
2022/09/02 09:53:26;;;;;;;7.05;2.45;;;;;;;35.46;21.84;101550.56;5050154;28;20108;-75
2022/09/02 09:56:06;;;;;;;5.38;2.50;;;;;;;34.72;22.72;101552.72;5034538;28;20060;-74
2022/09/02 09:58:38;;;;;;;9.82;2.88;;;;;;;35.75;21.85;101554.75;5069631;28;20111;-75
2022/09/02 10:01:16;;;;;;;6.63;2.80;;;;;;;36.72;20.87;101551.59;5054014;28;20028;-75
2022/09/02 10:04:01;;;;;;;5.25;2.55;;;;;;;35.95;21.69;101550.78;5052341;28;20024;-74
2022/09/02 10:06:29;;;;;;;6.38;2.70;;;;;;;35.85;21.55;101550.06;5071902;28;20099;-74
2022/09/02 10:08:57;;;;;;;6.40;2.28;;;;;;;35.38;21.72;101559.53;5069741;28;20059;-75
2022/09/02 10:11:28;;;;;;;3.80;2.25;;;;;;;35.28;22.35;101554.19;5071275;28;20028;-75
2022/09/02 10:14:04;;;;;;;4.88;3.10;;;;;;;35.13;22.19;101555.75;5061151;28;20036;-75
2022/09/02 10:17:14;;;;;;;5.90;2.40;;;;;;;35.46;22.07;101553.25;5053501;28;20380;-75
2022/09/02 10:19:51;;;;;;;4.57;2.55;;;;;;;34.86;22.29;101560.34;5033612;28;20105;-74
2022/09/02 10:22:35;;;;;;;3.58;2.80;;;;;;;35.22;22.04;101546.66;5033931;28;20025;-75
2022/09/02 10:25:22;;;;;;;6.25;2.40;;;;;;;35.32;22.52;101554.72;5039358;28;20028;-75
2022/09/02 10:28:10;;;;;;;5.10;2.47;;;;;;;35.70;21.45;101547.09;5053765;28;20028;-75
2022/09/02 10:30:52;;;;;;;6.10;2.00;;;;;;;35.40;22.15;101543.06;5040785;28;20465;-75
2022/09/02 10:33:44;;;;;;;4.13;2.03;;;;;;;35.40;21.51;101545.78;5035079;28;20025;-75
2022/09/02 10:36:37;;;;;;;3.58;2.20;;;;;;;36.31;21.38;101534.22;5054770;28;20091;-75
2022/09/02 10:39:21;;;;;;;5.00;2.50;;;;;;;35.15;22.57;101532.03;5039315;28;20172;-75
2022/09/02 10:41:48;;;;;;;6.00;2.22;;;;;;;35.35;21.93;101532.66;5037987;28;20056;-74
2022/09/02 10:45:01;;;;;;;3.70;2.78;;;;;;;34.22;23.17;101525.13;5033672;28;20029;-74
2022/09/02 10:47:36;;;;;;;4.80;2.55;;;;;;;33.67;23.13;101530.59;4992683;28;20036;-75
2022/09/02 10:50:25;;;;;;;6.15;2.90;;;;;;;34.23;23.37;101526.00;5033657;28;20017;-74
2022/09/02 10:53:36;;;;;;;6.68;3.20;;;;;;;34.86;21.92;101526.91;5059311;28;20059;-74
2022/09/02 10:56:14;;;;;;;6.20;2.47;;;;;;;34.67;22.79;101532.34;5031521;28;20040;-75
2022/09/02 10:58:47;;;;;;;4.80;2.60;;;;;;;35.72;21.84;101530.63;5050875;28;20036;-74
2022/09/02 11:01:33;;;;;;;3.50;2.80;;;;;;;35.03;22.69;101517.03;5052569;28;20020;-75
2022/09/02 11:04:12;;;;;;;4.80;3.20;;;;;;;35.05;22.71;101525.84;5052897;28;20412;-75
2022/09/02 11:06:40;;;;;;;5.75;2.75;;;;;;;35.13;22.46;101513.19;5045043;28;20024;-76
2022/09/02 11:09:12;;;;;;;7.20;3.08;;;;;;;33.91;23.87;101521.91;5068128;28;20028;-74
2022/09/02 11:11:56;;;;;;;5.75;2.78;;;;;;;34.89;22.61;101511.16;5035966;28;20179;-75
2022/09/02 11:14:55;;;;;;;4.22;2.47;;;;;;;35.48;21.80;101516.78;5038742;28;20105;-75
2022/09/02 11:17:51;;;;;;;5.88;2.40;;;;;;;35.48;22.04;101510.50;5064040;28;20365;-75
2022/09/02 11:20:34;;;;;;;6.22;2.72;;;;;;;36.22;21.24;101502.56;5070676;28;20034;-74
2022/09/02 11:23:18;;;;;;;7.20;2.97;;;;;;;35.61;21.74;101500.03;5050014;28;20025;-75
2022/09/02 11:25:56;;;;;;;4.82;2.53;;;;;;;36.44;21.15;101501.06;5036848;28;20032;-74
2022/09/02 11:28:47;;;;;;;4.57;2.42;;;;;;;36.13;21.90;101492.69;5060838;28;20024;-74
2022/09/02 11:31:24;;;;;;;10.63;2.95;;;;;;;36.79;21.09;101492.69;5037555;28;20472;-74
2022/09/02 11:33:59;;;;;;;2.72;2.20;;;;;;;36.70;20.68;101482.81;5040376;28;20053;-75
2022/09/02 11:36:26;;;;;;;5.15;2.58;;;;;;;36.09;21.16;101483.16;5039086;28;20039;-75
2022/09/02 11:39:03;;;;;;;5.80;2.22;;;;;;;37.32;20.06;101483.06;5044702;28;20040;-75